American Falls, ID (83211)

10:14 AM MDT on July 27, 2016 (GMT -0600)
ARLFRD | | Change Station

Elev 4389 ft 42.95 °N, 112.82 °W | Updated 34 minutes ago

Clear
Clear
66 °F
Feels Like 66 °F
N
2
Wind Variable Wind from South
Gusts 0.0 mph

Today
High -- | Low -- °F
--% Chance of Precip.
Yesterday
High -- | Low -- °F
Precip. -- in
Pressure 30.05 in
Visibility 10.0 miles
Clouds Clear
Dew Point 47 °F
Humidity 51%
Rainfall in
Snow Depth Not available.
6:18 AM 8:57 PM
Last Quarter, 42% visible
METAR KPIH 271553Z 32007KT 10SM CLR 22/07 A3019 RMK AO2 SLP175 T02170067
Pressure 30.05 in
Visibility 10.0 miles
Clouds Clear
Dew Point 47 °F
Humidity 51%
Rainfall in
Snow Depth Not available.
6:18 AM 8:57 PM
Last Quarter, 42% visible
METAR KPIH 271553Z 32007KT 10SM CLR 22/07 A3019 RMK AO2 SLP175 T02170067

10-Day Weather Forecast

Almanac

Astronomy

Jul. 27, 2016 Rise Set
Actual Time
Civil Twilight
Nautical Twilight
Astronomical Twilight
Moon
Length of Visible Light
Length of Day
Tomorrow will be .
, % of the Moon is Illuminated

Today's Extremes

State Highs State Lows

Community

WunderPhotos

Upload Photos

1,927,877 photos uploaded!

WunderBlog® & News

Nearby

Air Quality

  Air Quality AQ Index Pollutant
Not available.

Snow Depth

Station Depth Elevation

Earthquake Activity

City Distance Mag. Time & Date
Minimum magnitude displayed is 2.5.

Coastal Water Temperatures

Place Temperature

Stations

Nearby Weather Stations

Station Location Temp. Windchill Dew Point Humidity Wind Precip. Elev Updated Type
                   

Watches & Warnings

There are currently no watches in effect.